Time;durP1;ratioP1;P1;durP2;ratioP2;P2;SDS_P1;SDS_P2;PMS_P1;PMS_P2;Temp;Humidity;BMP_temperature;BMP_pressure;BME280_temperature;BME280_humidity;BME280_pressure;Samples;Min_cycle;Max_cycle;Signal;HPM_P1;HPM_P2
2022/05/31 00:00:44;;;;;;;9.53;6.75;;;;;;;;;;1928026;74;21110;-57
2022/05/31 00:03:13;;;;;;;8.73;6.00;;;;;;;;;;1928047;73;21025;-56
2022/05/31 00:05:41;;;;;;;6.33;5.25;;;;;;;;;;1928018;74;21016;-56
2022/05/31 00:08:10;;;;;;;7.20;5.50;;;;;;;;;;1928013;74;21008;-56
2022/05/31 00:10:39;;;;;;;6.92;5.75;;;;;;;;;;1927944;74;21020;-56
2022/05/31 00:13:08;;;;;;;7.70;4.75;;;;;;;;;;1927999;73;21029;-56
2022/05/31 00:15:37;;;;;;;9.00;5.83;;;;;;;;;;1927892;74;21135;-56
2022/05/31 00:18:05;;;;;;;7.05;5.10;;;;;;;;;;1927930;74;21103;-56
2022/05/31 00:20:34;;;;;;;6.25;5.65;;;;;;;;;;1927909;74;21235;-56
2022/05/31 00:23:03;;;;;;;8.83;5.45;;;;;;;;;;1927940;73;21106;-57
2022/05/31 00:25:32;;;;;;;8.70;5.50;;;;;;;;;;1927893;74;21037;-56
2022/05/31 00:28:01;;;;;;;6.78;4.95;;;;;;;;;;1927920;73;21098;-56
2022/05/31 00:30:29;;;;;;;7.00;5.25;;;;;;;;;;1927949;74;21016;-56
2022/05/31 00:32:58;;;;;;;7.53;5.28;;;;;;;;;;1927943;74;21037;-56
2022/05/31 00:35:28;;;;;;;7.10;4.80;;;;;;;;;;1928041;74;21084;-57
2022/05/31 00:37:57;;;;;;;9.65;6.20;;;;;;;;;;1928090;73;21021;-57
2022/05/31 00:40:27;;;;;;;7.15;5.97;;;;;;;;;;1928016;73;21024;-56
2022/05/31 00:42:57;;;;;;;8.75;5.60;;;;;;;;;;1928036;73;21020;-57
2022/05/31 00:45:27;;;;;;;8.60;5.67;;;;;;;;;;1927956;74;21009;-57
2022/05/31 00:47:56;;;;;;;9.20;6.05;;;;;;;;;;1927067;74;21114;-56
2022/05/31 00:50:26;;;;;;;10.45;6.55;;;;;;;;;;1928014;73;21060;-57
2022/05/31 00:52:56;;;;;;;8.88;6.58;;;;;;;;;;1926970;73;21104;-56
2022/05/31 00:55:32;;;;;;;8.18;6.28;;;;;;;;;;1939240;73;21165;-56
2022/05/31 00:58:06;;;;;;;8.63;6.15;;;;;;;;;;1957031;72;20992;-57
2022/05/31 01:00:38;;;;;;;7.70;5.93;;;;;;;;;;1957176;73;21031;-57
2022/05/31 01:03:08;;;;;;;8.88;6.28;;;;;;;;;;1957227;73;21020;-56
2022/05/31 01:05:37;;;;;;;7.12;5.80;;;;;;;;;;1956970;73;21028;-56
2022/05/31 01:08:06;;;;;;;8.50;5.25;;;;;;;;;;1956962;73;21028;-56
2022/05/31 01:10:36;;;;;;;7.20;4.60;;;;;;;;;;1956050;72;21039;-56
2022/05/31 01:13:11;;;;;;;7.40;5.22;;;;;;;;;;1932164;72;21100;-57
2022/05/31 01:16:06;;;;;;;7.67;5.67;;;;;;;;;;1928203;74;21103;-56
2022/05/31 01:18:43;;;;;;;8.98;6.47;;;;;;;;;;1906879;73;21117;-56
2022/05/31 01:21:15;;;;;;;10.60;7.55;;;;;;;;;;1952953;73;21121;-56
2022/05/31 01:23:55;;;;;;;9.28;6.22;;;;;;;;;;1955292;73;21047;-56
2022/05/31 01:26:37;;;;;;;12.20;7.37;;;;;;;;;;1956993;73;21028;-56
2022/05/31 01:29:13;;;;;;;8.45;6.60;;;;;;;;;;1956952;73;21023;-57
2022/05/31 01:31:43;;;;;;;8.03;5.85;;;;;;;;;;1956324;73;21047;-56
2022/05/31 01:34:18;;;;;;;6.95;6.25;;;;;;;;;;1957097;73;21019;-57
2022/05/31 01:36:47;;;;;;;9.30;6.20;;;;;;;;;;1957298;73;21486;-56
2022/05/31 01:39:20;;;;;;;14.95;6.78;;;;;;;;;;1957107;73;21016;-57
2022/05/31 01:41:50;;;;;;;11.43;5.90;;;;;;;;;;1957102;73;20996;-56
2022/05/31 01:44:19;;;;;;;8.45;5.90;;;;;;;;;;1956910;73;21020;-57
2022/05/31 01:46:50;;;;;;;11.65;6.28;;;;;;;;;;1956998;73;21023;-56
2022/05/31 01:49:19;;;;;;;10.53;6.50;;;;;;;;;;1957024;73;21039;-57
2022/05/31 01:51:48;;;;;;;13.60;6.58;;;;;;;;;;1957026;73;21024;-56
2022/05/31 01:54:18;;;;;;;16.27;7.62;;;;;;;;;;1956954;73;21000;-56
2022/05/31 01:56:49;;;;;;;11.53;6.87;;;;;;;;;;1956526;73;21113;-56
2022/05/31 01:59:18;;;;;;;10.55;7.28;;;;;;;;;;1956388;73;21527;-56
2022/05/31 02:01:47;;;;;;;10.13;6.83;;;;;;;;;;1956585;73;21008;-57
2022/05/31 02:04:17;;;;;;;8.65;6.37;;;;;;;;;;1956401;73;21012;-56
2022/05/31 02:06:46;;;;;;;7.67;6.25;;;;;;;;;;1956523;73;21525;-57
2022/05/31 02:09:15;;;;;;;10.18;7.15;;;;;;;;;;1956500;73;21015;-57
2022/05/31 02:11:45;;;;;;;9.08;6.47;;;;;;;;;;1956509;73;21020;-56
2022/05/31 02:14:21;;;;;;;9.35;6.15;;;;;;;;;;1955565;73;21056;-57
2022/05/31 02:16:50;;;;;;;10.25;6.83;;;;;;;;;;1956467;73;21086;-56
2022/05/31 02:19:36;;;;;;;10.60;6.65;;;;;;;;;;1956451;73;21053;-57
2022/05/31 02:22:11;;;;;;;8.33;6.67;;;;;;;;;;1955621;73;21076;-57
2022/05/31 02:24:39;;;;;;;12.15;6.75;;;;;;;;;;1956429;73;21023;-57
2022/05/31 02:27:08;;;;;;;10.45;6.70;;;;;;;;;;1956571;73;21031;-57
2022/05/31 02:29:39;;;;;;;14.53;6.33;;;;;;;;;;1955764;73;21075;-57
2022/05/31 02:32:10;;;;;;;6.90;5.85;;;;;;;;;;1956669;73;21000;-57
2022/05/31 02:34:40;;;;;;;8.83;5.72;;;;;;;;;;1956422;73;21016;-57
2022/05/31 02:37:09;;;;;;;7.58;5.50;;;;;;;;;;1956531;73;21012;-57
2022/05/31 02:39:38;;;;;;;8.08;5.87;;;;;;;;;;1956535;73;21105;-57
2022/05/31 02:42:08;;;;;;;11.78;6.03;;;;;;;;;;1956449;73;21032;-57
2022/05/31 02:44:37;;;;;;;8.93;6.00;;;;;;;;;;1956627;73;21016;-57
2022/05/31 02:47:07;;;;;;;17.73;7.03;;;;;;;;;;1956525;73;21012;-57
2022/05/31 02:49:36;;;;;;;8.35;6.17;;;;;;;;;;1956481;73;21020;-57
2022/05/31 02:52:05;;;;;;;8.38;6.05;;;;;;;;;;1956616;73;21071;-57
2022/05/31 02:54:34;;;;;;;12.85;6.70;;;;;;;;;;1956524;73;21067;-57
2022/05/31 02:57:23;;;;;;;23.52;7.12;;;;;;;;;;1956823;72;21113;-57
2022/05/31 03:00:10;;;;;;;10.93;6.00;;;;;;;;;;1957078;73;21105;-57
2022/05/31 03:02:58;;;;;;;9.78;5.95;;;;;;;;;;1957075;73;21032;-57
2022/05/31 03:05:32;;;;;;;10.13;6.28;;;;;;;;;;1957201;73;21019;-57
2022/05/31 03:08:19;;;;;;;9.53;6.65;;;;;;;;;;1957089;73;21094;-57
2022/05/31 03:11:06;;;;;;;15.55;6.42;;;;;;;;;;1957024;73;21529;-57
2022/05/31 03:13:35;;;;;;;11.63;6.90;;;;;;;;;;1957164;73;21067;-57
2022/05/31 03:16:04;;;;;;;9.68;6.28;;;;;;;;;;1957195;73;21003;-57
2022/05/31 03:18:34;;;;;;;13.65;7.05;;;;;;;;;;1957073;73;21085;-57
2022/05/31 03:21:04;;;;;;;12.20;6.87;;;;;;;;;;1957048;73;21097;-57
2022/05/31 03:23:34;;;;;;;14.80;7.33;;;;;;;;;;1956927;73;21039;-57
2022/05/31 03:26:04;;;;;;;9.68;6.20;;;;;;;;;;1957114;73;21109;-57
2022/05/31 03:28:34;;;;;;;9.55;6.60;;;;;;;;;;1957133;73;20999;-57
2022/05/31 03:31:03;;;;;;;14.40;7.85;;;;;;;;;;1957156;73;21024;-57
2022/05/31 03:33:32;;;;;;;8.18;5.75;;;;;;;;;;1957080;73;21160;-57
2022/05/31 03:36:02;;;;;;;7.33;5.60;;;;;;;;;;1957178;73;21003;-57
2022/05/31 03:38:32;;;;;;;8.93;5.15;;;;;;;;;;1955160;73;21035;-58
2022/05/31 03:41:01;;;;;;;7.17;5.37;;;;;;;;;;1957064;73;21085;-57
2022/05/31 03:43:33;;;;;;;7.08;4.87;;;;;;;;;;1956454;73;21097;-57
2022/05/31 03:46:19;;;;;;;7.95;4.75;;;;;;;;;;1957039;73;21536;-57
2022/05/31 03:49:07;;;;;;;8.53;4.90;;;;;;;;;;1956996;73;21474;-57
2022/05/31 03:51:46;;;;;;;12.03;4.80;;;;;;;;;;1956649;73;21038;-57
2022/05/31 03:54:17;;;;;;;7.20;4.83;;;;;;;;;;1956062;73;21039;-57
2022/05/31 03:57:05;;;;;;;6.78;5.37;;;;;;;;;;1957002;72;21125;-57
2022/05/31 03:59:37;;;;;;;7.28;5.72;;;;;;;;;;1957026;73;21097;-57
2022/05/31 04:02:07;;;;;;;11.08;5.55;;;;;;;;;;1933463;73;21074;-57
2022/05/31 04:04:37;;;;;;;12.07;7.60;;;;;;;;;;1957098;73;21020;-57
2022/05/31 04:07:05;;;;;;;11.00;7.17;;;;;;;;;;1957153;73;21055;-57
2022/05/31 04:09:35;;;;;;;12.93;7.58;;;;;;;;;;1957098;73;21090;-57
2022/05/31 04:12:05;;;;;;;15.40;7.65;;;;;;;;;;1956758;73;21067;-57
2022/05/31 04:14:53;;;;;;;11.38;7.20;;;;;;;;;;1957009;73;21036;-57
2022/05/31 04:17:21;;;;;;;13.90;6.65;;;;;;;;;;1957062;73;21016;-57
2022/05/31 04:19:50;;;;;;;14.93;7.60;;;;;;;;;;1956929;73;21024;-57
2022/05/31 04:22:19;;;;;;;11.08;6.10;;;;;;;;;;1956988;73;21004;-57
2022/05/31 04:24:53;;;;;;;9.08;5.08;;;;;;;;;;1933278;73;21032;-56
2022/05/31 04:27:39;;;;;;;10.50;5.97;;;;;;;;;;1940078;73;21051;-57
2022/05/31 04:30:26;;;;;;;8.28;5.58;;;;;;;;;;1957000;73;21582;-57
2022/05/31 04:33:12;;;;;;;10.95;5.15;;;;;;;;;;1957019;73;21023;-57
2022/05/31 04:35:42;;;;;;;14.33;5.65;;;;;;;;;;1957065;73;21012;-57
2022/05/31 04:38:11;;;;;;;19.25;5.22;;;;;;;;;;1956977;73;21043;-57
2022/05/31 04:40:41;;;;;;;19.85;7.95;;;;;;;;;;1953694;73;21075;-57
2022/05/31 04:43:11;;;;;;;20.43;8.70;;;;;;;;;;1957012;73;21035;-57
2022/05/31 04:45:45;;;;;;;20.37;9.63;;;;;;;;;;1956865;73;21493;-57
2022/05/31 04:48:31;;;;;;;14.90;6.08;;;;;;;;;;1956938;73;21039;-57
2022/05/31 04:51:01;;;;;;;20.10;9.48;;;;;;;;;;1956987;73;21032;-57
2022/05/31 04:53:31;;;;;;;24.45;10.08;;;;;;;;;;1956159;73;21035;-56
2022/05/31 04:56:18;;;;;;;17.27;9.50;;;;;;;;;;1954768;73;21203;-56
2022/05/31 04:58:46;;;;;;;23.60;12.30;;;;;;;;;;1956857;73;21099;-57
2022/05/31 05:01:15;;;;;;;25.10;10.78;;;;;;;;;;1956981;73;20996;-57
2022/05/31 05:03:45;;;;;;;23.12;10.08;;;;;;;;;;1956998;73;21090;-57
2022/05/31 05:06:16;;;;;;;24.45;10.60;;;;;;;;;;1956889;73;21020;-57
2022/05/31 05:08:46;;;;;;;23.35;11.50;;;;;;;;;;1932940;73;21063;-57
2022/05/31 05:11:16;;;;;;;23.80;9.95;;;;;;;;;;1956979;73;21031;-57
2022/05/31 05:13:53;;;;;;;15.53;6.00;;;;;;;;;;1918597;73;21008;-57
2022/05/31 05:16:39;;;;;;;26.33;9.53;;;;;;;;;;1957009;73;21450;-57
2022/05/31 05:19:08;;;;;;;26.02;10.70;;;;;;;;;;1956969;73;21024;-57
2022/05/31 05:21:37;;;;;;;6.42;3.05;;;;;;;;;;1957034;73;21015;-57
2022/05/31 05:24:06;;;;;;;7.70;3.70;;;;;;;;;;1956933;73;21071;-57
2022/05/31 05:26:37;;;;;;;11.65;4.17;;;;;;;;;;1954733;73;21047;-57
2022/05/31 05:31:57;;;;;;;10.18;3.10;;;;;;;;;;1956516;73;21031;-57
2022/05/31 05:34:42;;;;;;;10.48;4.03;;;;;;;;;;1956882;73;21004;-56
2022/05/31 05:37:12;;;;;;;12.73;4.17;;;;;;;;;;1955619;72;21105;-57
2022/05/31 05:39:41;;;;;;;9.60;3.70;;;;;;;;;;1956942;73;21094;-57
2022/05/31 05:42:27;;;;;;;12.58;5.95;;;;;;;;;;1957061;73;21446;-56
2022/05/31 05:45:10;;;;;;;12.30;6.85;;;;;;;;;;1956840;73;21065;-57
2022/05/31 05:47:41;;;;;;;17.42;6.53;;;;;;;;;;1956822;73;21113;-56
2022/05/31 05:50:09;;;;;;;12.37;6.87;;;;;;;;;;1956975;73;21027;-57
2022/05/31 05:52:57;;;;;;;20.17;6.17;;;;;;;;;;1956948;73;21276;-57
2022/05/31 05:55:45;;;;;;;15.28;6.87;;;;;;;;;;1957049;73;21066;-56
2022/05/31 05:58:19;;;;;;;11.80;7.10;;;;;;;;;;1956814;73;21509;-56
2022/05/31 06:01:07;;;;;;;17.07;5.55;;;;;;;;;;1956980;73;21086;-57
2022/05/31 06:03:43;;;;;;;12.45;6.15;;;;;;;;;;1957055;73;21202;-57
2022/05/31 06:06:13;;;;;;;13.62;6.30;;;;;;;;;;1956952;73;21101;-56
2022/05/31 06:08:49;;;;;;;12.20;5.65;;;;;;;;;;1956909;73;21039;-57
2022/05/31 06:11:19;;;;;;;13.38;6.75;;;;;;;;;;1957036;73;21012;-57
2022/05/31 06:13:50;;;;;;;17.17;8.10;;;;;;;;;;1956934;73;21081;-56
2022/05/31 06:16:20;;;;;;;22.50;8.70;;;;;;;;;;1955999;73;21093;-57
2022/05/31 06:18:50;;;;;;;13.85;7.28;;;;;;;;;;1956884;73;21008;-57
2022/05/31 06:21:20;;;;;;;29.72;9.75;;;;;;;;;;1956257;73;21067;-57
2022/05/31 06:23:50;;;;;;;20.35;10.48;;;;;;;;;;1956939;73;21059;-56
2022/05/31 06:26:19;;;;;;;19.10;10.70;;;;;;;;;;1956886;73;21012;-56
2022/05/31 06:28:49;;;;;;;35.83;14.33;;;;;;;;;;1954364;73;21095;-56
2022/05/31 06:31:19;;;;;;;16.67;9.58;;;;;;;;;;1957054;73;21040;-57
2022/05/31 06:33:48;;;;;;;25.23;10.93;;;;;;;;;;1956794;73;21188;-56
2022/05/31 06:36:17;;;;;;;23.67;12.47;;;;;;;;;;1932938;73;21082;-57
2022/05/31 06:38:46;;;;;;;25.05;10.88;;;;;;;;;;1956824;73;21083;-57
2022/05/31 06:41:15;;;;;;;37.40;10.82;;;;;;;;;;1956915;73;21031;-56
2022/05/31 06:44:02;;;;;;;13.80;7.12;;;;;;;;;;1956754;73;21045;-57
2022/05/31 06:46:49;;;;;;;18.17;6.83;;;;;;;;;;1957034;73;21032;-56
2022/05/31 06:49:38;;;;;;;11.90;6.37;;;;;;;;;;1861258;77;21068;-57
2022/05/31 06:58:11;;;;;;;15.70;6.10;;;;;;;;;;1956590;73;21109;-56
2022/05/31 07:00:42;;;;;;;10.98;5.65;;;;;;;;;;1955232;73;21138;-57
2022/05/31 07:03:11;;;;;;;12.13;6.00;;;;;;;;;;1956556;73;21113;-57
2022/05/31 07:05:40;;;;;;;12.50;5.78;;;;;;;;;;1956385;73;21028;-56
2022/05/31 07:08:09;;;;;;;10.82;5.45;;;;;;;;;;1956336;73;21090;-57
2022/05/31 07:10:51;;;;;;;10.75;6.00;;;;;;;;;;1915451;73;21035;-57
2022/05/31 07:13:25;;;;;;;13.18;6.65;;;;;;;;;;1951128;73;21479;-56
2022/05/31 07:16:12;;;;;;;13.08;5.75;;;;;;;;;;1956369;73;21028;-56
2022/05/31 07:18:47;;;;;;;7.83;5.22;;;;;;;;;;1956325;73;21064;-56
2022/05/31 07:21:16;;;;;;;12.88;5.50;;;;;;;;;;1956376;73;21075;-57
2022/05/31 07:23:45;;;;;;;14.43;4.72;;;;;;;;;;1956366;73;21071;-57
2022/05/31 07:26:14;;;;;;;10.03;5.03;;;;;;;;;;1956215;73;21028;-56
2022/05/31 07:28:43;;;;;;;9.48;4.87;;;;;;;;;;1956371;73;21020;-57
2022/05/31 07:31:12;;;;;;;9.88;4.67;;;;;;;;;;1956352;73;21036;-56
2022/05/31 07:33:42;;;;;;;7.72;4.95;;;;;;;;;;1953087;73;21071;-57
2022/05/31 07:36:11;;;;;;;9.60;5.90;;;;;;;;;;1956294;73;21102;-57
2022/05/31 07:38:42;;;;;;;11.80;5.58;;;;;;;;;;1952270;73;21068;-57
2022/05/31 07:41:11;;;;;;;9.98;5.78;;;;;;;;;;1956330;73;21100;-57
2022/05/31 07:43:39;;;;;;;8.65;5.08;;;;;;;;;;1956201;73;21143;-57
2022/05/31 07:46:14;;;;;;;8.80;5.95;;;;;;;;;;1956352;73;21018;-57
2022/05/31 07:48:41;;;;;;;12.13;5.40;;;;;;;;;;1954966;73;21524;-57
2022/05/31 07:51:11;;;;;;;13.32;6.17;;;;;;;;;;1950378;73;21162;-57
2022/05/31 07:53:41;;;;;;;17.50;7.60;;;;;;;;;;1924932;73;21514;-57
2022/05/31 07:56:28;;;;;;;10.43;6.72;;;;;;;;;;1921775;75;21123;-57
2022/05/31 07:59:10;;;;;;;12.37;7.45;;;;;;;;;;1944229;73;21076;-57
2022/05/31 08:01:41;;;;;;;17.02;7.10;;;;;;;;;;1951061;73;21526;-57
2022/05/31 08:04:17;;;;;;;12.63;7.25;;;;;;;;;;1954812;73;21134;-58
2022/05/31 08:06:46;;;;;;;11.60;7.30;;;;;;;;;;1956377;73;21129;-59
2022/05/31 08:09:15;;;;;;;15.43;7.42;;;;;;;;;;1954815;73;21028;-60
2022/05/31 08:11:44;;;;;;;13.93;6.45;;;;;;;;;;1955784;73;21107;-61
2022/05/31 08:14:13;;;;;;;13.65;6.42;;;;;;;;;;1955774;73;21083;-61
2022/05/31 08:16:42;;;;;;;8.78;4.55;;;;;;;;;;1955661;73;21102;-62
2022/05/31 08:19:10;;;;;;;10.75;4.72;;;;;;;;;;1955808;73;21024;-60
2022/05/31 08:21:39;;;;;;;9.98;4.78;;;;;;;;;;1955780;73;21148;-63
2022/05/31 08:24:08;;;;;;;7.15;4.10;;;;;;;;;;1955540;73;21062;-60
2022/05/31 08:26:37;;;;;;;10.98;4.55;;;;;;;;;;1955942;73;21028;-67
2022/05/31 08:29:06;;;;;;;12.70;4.15;;;;;;;;;;1955494;73;21190;-63
2022/05/31 08:31:36;;;;;;;8.45;4.97;;;;;;;;;;1955646;73;21098;-66
2022/05/31 08:34:05;;;;;;;5.22;4.08;;;;;;;;;;1955811;73;21047;-60
2022/05/31 08:36:34;;;;;;;8.65;4.80;;;;;;;;;;1955714;73;21487;-62
2022/05/31 08:39:03;;;;;;;9.40;6.30;;;;;;;;;;1955636;73;21032;-61
2022/05/31 08:41:33;;;;;;;7.22;4.65;;;;;;;;;;1955709;73;21063;-61
2022/05/31 08:44:15;;;;;;;8.15;3.98;;;;;;;;;;1954299;73;21048;-61
2022/05/31 08:46:47;;;;;;;4.70;3.58;;;;;;;;;;1953424;73;21090;-61
2022/05/31 08:49:20;;;;;;;9.85;4.85;;;;;;;;;;1955275;73;21043;-63
2022/05/31 08:51:53;;;;;;;9.55;4.12;;;;;;;;;;1955258;73;21482;-64
2022/05/31 08:57:10;;;;;;;8.65;4.22;;;;;;;;;;1955793;73;21152;-61
2022/05/31 08:59:56;;;;;;;6.35;3.85;;;;;;;;;;1955736;73;21106;-61
2022/05/31 09:02:32;;;;;;;8.58;3.80;;;;;;;;;;1955464;73;21016;-62
2022/05/31 09:05:07;;;;;;;8.65;4.20;;;;;;;;;;1955708;73;21044;-64
2022/05/31 09:07:36;;;;;;;7.97;3.95;;;;;;;;;;1954752;73;21560;-63
2022/05/31 09:10:09;;;;;;;11.43;4.60;;;;;;;;;;1943769;73;21113;-64
2022/05/31 09:12:39;;;;;;;10.18;4.30;;;;;;;;;;1955063;73;21117;-68
2022/05/31 09:15:09;;;;;;;9.33;4.80;;;;;;;;;;1955633;73;21567;-62
2022/05/31 09:17:42;;;;;;;17.92;5.70;;;;;;;;;;1955742;73;21024;-65
2022/05/31 09:20:14;;;;;;;10.30;5.90;;;;;;;;;;1955661;73;21110;-60
2022/05/31 09:22:47;;;;;;;14.63;5.58;;;;;;;;;;1955755;73;21012;-58
2022/05/31 09:25:16;;;;;;;13.45;6.33;;;;;;;;;;1955735;73;21024;-59
2022/05/31 09:27:46;;;;;;;13.83;6.97;;;;;;;;;;1955706;73;21078;-59
2022/05/31 09:30:15;;;;;;;16.82;8.00;;;;;;;;;;1955574;73;21020;-64
2022/05/31 09:32:58;;;;;;;17.57;8.18;;;;;;;;;;1955615;73;21020;-62
2022/05/31 09:35:44;;;;;;;16.97;7.60;;;;;;;;;;1955176;73;21529;-61
2022/05/31 09:38:26;;;;;;;44.08;8.63;;;;;;;;;;1955745;73;21157;-62
2022/05/31 09:41:05;;;;;;;23.30;7.12;;;;;;;;;;1955663;73;21040;-61
2022/05/31 09:43:30;;;;;;;15.15;6.10;;;;;;;;;;1950179;72;21535;-63
2022/05/31 09:46:06;;;;;;;16.40;6.10;;;;;;;;;;1923409;74;21002;-63
2022/05/31 09:48:36;;;;;;;13.03;5.35;;;;;;;;;;1922997;74;21100;-63
2022/05/31 09:51:11;;;;;;;12.80;5.85;;;;;;;;;;1923061;74;21068;-62
2022/05/31 09:57:06;;;;;;;15.63;6.65;;;;;;;;;;1959720;73;21050;-62
2022/05/31 09:59:56;;;;;;;15.28;5.37;;;;;;;;;;1963426;72;21119;-62
2022/05/31 10:02:42;;;;;;;13.55;6.10;;;;;;;;;;1959790;73;21089;-61
2022/05/31 10:05:18;;;;;;;11.48;5.85;;;;;;;;;;1959876;73;21064;-61
2022/05/31 10:07:47;;;;;;;10.50;6.08;;;;;;;;;;1959688;73;21428;-61
2022/05/31 10:10:17;;;;;;;15.40;5.75;;;;;;;;;;1959531;73;20998;-61
2022/05/31 10:12:52;;;;;;;11.65;5.08;;;;;;;;;;1959601;72;21053;-61
2022/05/31 10:15:38;;;;;;;13.78;6.17;;;;;;;;;;1959605;73;21602;-60
2022/05/31 10:18:08;;;;;;;12.03;5.25;;;;;;;;;;1959538;73;21041;-60
2022/05/31 10:20:38;;;;;;;21.45;6.85;;;;;;;;;;1959574;73;21044;-60
2022/05/31 10:23:13;;;;;;;24.47;9.28;;;;;;;;;;1959769;73;21127;-61
2022/05/31 10:25:56;;;;;;;21.62;10.65;;;;;;;;;;1959844;73;21138;-61
2022/05/31 10:28:37;;;;;;;18.35;9.70;;;;;;;;;;1946717;72;21584;-61
2022/05/31 10:31:08;;;;;;;51.65;10.68;;;;;;;;;;1951868;72;21013;-60
2022/05/31 10:33:39;;;;;;;33.63;11.73;;;;;;;;;;1956721;72;21523;-54
2022/05/31 10:36:09;;;;;;;36.50;10.65;;;;;;;;;;1959685;73;21061;-58
2022/05/31 10:38:39;;;;;;;15.85;6.50;;;;;;;;;;1959736;73;21026;-64
2022/05/31 10:41:08;;;;;;;19.60;9.00;;;;;;;;;;1959774;73;21294;-59
2022/05/31 10:43:38;;;;;;;17.85;8.30;;;;;;;;;;1959633;72;20971;-59
2022/05/31 10:46:11;;;;;;;18.20;6.62;;;;;;;;;;1959687;73;21077;-59
2022/05/31 10:48:47;;;;;;;17.25;4.85;;;;;;;;;;1959606;73;21135;-65
2022/05/31 10:51:22;;;;;;;65.47;9.28;;;;;;;;;;1959819;73;21061;-66
2022/05/31 10:53:57;;;;;;;66.22;9.05;;;;;;;;;;1959511;73;21018;-66
2022/05/31 10:56:30;;;;;;;14.25;4.90;;;;;;;;;;1948104;73;21084;-66
2022/05/31 10:59:01;;;;;;;15.25;5.47;;;;;;;;;;1914487;73;21014;-62
2022/05/31 11:01:30;;;;;;;11.95;5.60;;;;;;;;;;1946984;73;21064;-67
2022/05/31 11:04:16;;;;;;;17.05;5.72;;;;;;;;;;1946461;73;21147;-65
2022/05/31 11:07:02;;;;;;;14.87;5.95;;;;;;;;;;1946816;74;21143;-64
2022/05/31 11:12:30;;;;;;;14.18;6.60;;;;;;;;;;1918986;74;21022;-62
2022/05/31 11:15:09;;;;;;;15.40;6.50;;;;;;;;;;1918949;75;21010;-62
2022/05/31 11:17:42;;;;;;;16.70;6.00;;;;;;;;;;1918960;75;21045;-62
2022/05/31 11:20:17;;;;;;;14.30;6.10;;;;;;;;;;1916295;74;21026;-61
2022/05/31 11:23:04;;;;;;;14.18;5.95;;;;;;;;;;1918756;73;21088;-62
2022/05/31 11:25:33;;;;;;;8.93;4.42;;;;;;;;;;1919014;75;21018;-62
2022/05/31 11:28:09;;;;;;;12.75;5.10;;;;;;;;;;1918867;75;21018;-62
2022/05/31 11:30:48;;;;;;;17.02;5.70;;;;;;;;;;1918769;75;21112;-62
2022/05/31 11:33:24;;;;;;;17.00;5.85;;;;;;;;;;1918115;74;21046;-62
2022/05/31 11:36:10;;;;;;;15.50;4.57;;;;;;;;;;1915813;73;21026;-62
2022/05/31 11:38:40;;;;;;;11.40;4.92;;;;;;;;;;1918689;75;21313;-62
2022/05/31 11:41:28;;;;;;;11.20;4.37;;;;;;;;;;1918199;74;21152;-62
2022/05/31 11:44:07;;;;;;;9.08;4.15;;;;;;;;;;1919140;75;21129;-62
2022/05/31 11:46:48;;;;;;;12.73;4.33;;;;;;;;;;1919092;75;21046;-62
2022/05/31 11:49:14;;;;;;;9.78;3.33;;;;;;;;;;1917967;73;21484;-62
2022/05/31 11:51:50;;;;;;;11.43;3.30;;;;;;;;;;1917193;74;21054;-62
2022/05/31 11:54:35;;;;;;;10.95;2.80;;;;;;;;;;1919032;75;21018;-62
2022/05/31 11:57:08;;;;;;;7.03;3.62;;;;;;;;;;1918981;75;21088;-62
2022/05/31 11:59:44;;;;;;;6.58;3.20;;;;;;;;;;1918055;74;21022;-62
2022/05/31 12:02:16;;;;;;;9.15;3.72;;;;;;;;;;1919111;75;21088;-62
2022/05/31 12:04:52;;;;;;;6.83;3.00;;;;;;;;;;1918945;75;21112;-62
2022/05/31 12:07:34;;;;;;;18.42;4.22;;;;;;;;;;1917909;74;21046;-62
2022/05/31 12:10:07;;;;;;;11.97;5.15;;;;;;;;;;1918480;73;21022;-63
2022/05/31 12:12:37;;;;;;;4.50;3.07;;;;;;;;;;1928137;73;21070;-62
2022/05/31 12:15:13;;;;;;;6.25;3.08;;;;;;;;;;1928389;74;21079;-62
2022/05/31 12:17:45;;;;;;;8.18;3.72;;;;;;;;;;1927108;74;21484;-62
2022/05/31 12:20:17;;;;;;;5.97;3.60;;;;;;;;;;1927957;74;21045;-62
2022/05/31 12:22:47;;;;;;;8.93;3.72;;;;;;;;;;1928175;74;21018;-62
2022/05/31 12:25:17;;;;;;;9.70;2.92;;;;;;;;;;1926847;74;21049;-62
2022/05/31 12:28:04;;;;;;;9.63;3.20;;;;;;;;;;1928159;73;21045;-63
2022/05/31 12:30:34;;;;;;;11.40;3.33;;;;;;;;;;1928252;74;21030;-62
2022/05/31 12:33:02;;;;;;;8.18;3.33;;;;;;;;;;1927985;74;21069;-62
2022/05/31 12:35:32;;;;;;;11.38;3.20;;;;;;;;;;1928518;74;21014;-63
2022/05/31 12:38:02;;;;;;;20.97;4.87;;;;;;;;;;1928360;74;21018;-63
2022/05/31 12:40:35;;;;;;;12.28;4.40;;;;;;;;;;1928400;74;21190;-62
2022/05/31 12:43:08;;;;;;;28.80;7.62;;;;;;;;;;1928446;74;21061;-63
2022/05/31 12:45:38;;;;;;;12.73;4.00;;;;;;;;;;1914924;74;21006;-63
2022/05/31 12:48:14;;;;;;;19.65;4.40;;;;;;;;;;1928141;74;21123;-63
2022/05/31 12:50:53;;;;;;;10.68;4.58;;;;;;;;;;1928076;74;21017;-63
2022/05/31 12:53:23;;;;;;;8.45;4.30;;;;;;;;;;1924849;74;21034;-63
2022/05/31 12:55:56;;;;;;;12.65;4.95;;;;;;;;;;1923438;74;21018;-63
2022/05/31 12:58:36;;;;;;;13.08;4.62;;;;;;;;;;1928275;74;21107;-63
2022/05/31 13:01:06;;;;;;;21.07;5.78;;;;;;;;;;1927392;74;21022;-63
2022/05/31 13:03:41;;;;;;;13.43;4.58;;;;;;;;;;1928142;74;21018;-63
2022/05/31 13:06:13;;;;;;;10.08;4.78;;;;;;;;;;1927572;74;21038;-63
2022/05/31 13:08:52;;;;;;;8.63;4.00;;;;;;;;;;1928263;74;21096;-63
2022/05/31 13:20:17;;;;;;;9.48;4.20;;;;;;;;;;1928218;74;21154;-63
2022/05/31 13:22:47;;;;;;;7.42;3.30;;;;;;;;;;1928077;73;21485;-63
2022/05/31 13:25:17;;;;;;;11.83;4.25;;;;;;;;;;1928233;74;21018;-63
2022/05/31 13:27:46;;;;;;;8.20;4.10;;;;;;;;;;1928255;74;21103;-63
2022/05/31 13:30:16;;;;;;;9.45;3.58;;;;;;;;;;1927880;74;21519;-63
2022/05/31 13:32:45;;;;;;;11.22;4.20;;;;;;;;;;1928179;74;21495;-63
2022/05/31 13:35:15;;;;;;;10.08;4.17;;;;;;;;;;1928330;74;21021;-63
2022/05/31 13:37:48;;;;;;;6.83;3.62;;;;;;;;;;1928154;74;21665;-63
2022/05/31 13:40:18;;;;;;;8.83;3.95;;;;;;;;;;1928346;74;21018;-63
2022/05/31 13:42:47;;;;;;;13.85;7.30;;;;;;;;;;1927155;74;21049;-63
2022/05/31 13:45:17;;;;;;;12.70;4.87;;;;;;;;;;1928232;74;21038;-63
2022/05/31 13:47:53;;;;;;;11.73;5.03;;;;;;;;;;1928167;74;21049;-63
2022/05/31 13:50:23;;;;;;;11.90;6.62;;;;;;;;;;1927415;74;21054;-63
2022/05/31 13:52:52;;;;;;;9.15;4.00;;;;;;;;;;1928169;74;21022;-63
2022/05/31 13:55:22;;;;;;;12.75;5.55;;;;;;;;;;1928456;74;21045;-63
2022/05/31 13:57:55;;;;;;;8.48;4.33;;;;;;;;;;1928254;74;21085;-63
2022/05/31 14:00:43;;;;;;;8.63;3.67;;;;;;;;;;1928370;74;21034;-63
2022/05/31 14:03:13;;;;;;;8.33;3.87;;;;;;;;;;1928550;74;21127;-63
2022/05/31 14:05:43;;;;;;;11.73;4.30;;;;;;;;;;1925620;74;21050;-63
2022/05/31 14:08:12;;;;;;;12.65;5.12;;;;;;;;;;1927200;74;21054;-63
2022/05/31 14:10:48;;;;;;;11.85;6.55;;;;;;;;;;1928394;74;21018;-63
2022/05/31 14:13:21;;;;;;;18.98;8.25;;;;;;;;;;1928214;74;21064;-63
2022/05/31 14:15:50;;;;;;;8.85;5.12;;;;;;;;;;1927769;74;21480;-63
2022/05/31 14:18:19;;;;;;;10.85;4.30;;;;;;;;;;1928311;74;21030;-63
2022/05/31 14:20:50;;;;;;;11.53;4.62;;;;;;;;;;1928390;74;21087;-63
2022/05/31 14:23:22;;;;;;;6.40;4.37;;;;;;;;;;1928336;74;21026;-63
2022/05/31 14:25:51;;;;;;;7.00;3.75;;;;;;;;;;1928347;74;21142;-63
2022/05/31 14:28:20;;;;;;;6.12;3.42;;;;;;;;;;1928216;74;21041;-63
2022/05/31 14:30:59;;;;;;;7.15;3.72;;;;;;;;;;1928205;74;21019;-63
2022/05/31 14:33:29;;;;;;;7.72;4.00;;;;;;;;;;1928252;74;21002;-63
2022/05/31 14:35:57;;;;;;;8.05;4.55;;;;;;;;;;1927791;73;21033;-63
2022/05/31 14:38:33;;;;;;;9.85;3.83;;;;;;;;;;1928213;74;21041;-63
2022/05/31 14:41:05;;;;;;;6.70;3.40;;;;;;;;;;1928348;74;21073;-63
2022/05/31 14:43:35;;;;;;;8.38;3.67;;;;;;;;;;1928151;74;21096;-63
2022/05/31 14:46:04;;;;;;;6.60;3.90;;;;;;;;;;1928267;74;21480;-63
2022/05/31 14:48:37;;;;;;;8.43;3.67;;;;;;;;;;1928187;74;21042;-63
2022/05/31 14:51:22;;;;;;;11.35;4.20;;;;;;;;;;1928214;74;21111;-63
2022/05/31 14:53:53;;;;;;;4.50;3.40;;;;;;;;;;1928096;74;21406;-63
2022/05/31 14:56:22;;;;;;;7.85;4.08;;;;;;;;;;1928107;74;21156;-63
2022/05/31 14:58:58;;;;;;;8.38;3.77;;;;;;;;;;1928133;74;21079;-63
2022/05/31 15:01:32;;;;;;;6.33;3.90;;;;;;;;;;1927337;74;21041;-63
2022/05/31 15:04:08;;;;;;;6.33;4.03;;;;;;;;;;1927683;74;21112;-63
2022/05/31 15:06:37;;;;;;;5.03;3.67;;;;;;;;;;1919402;74;21087;-63
2022/05/31 15:09:07;;;;;;;8.85;4.05;;;;;;;;;;1928333;74;21111;-63
2022/05/31 15:19:56;;;;;;;4.10;2.95;;;;;;;;;;1928318;74;21128;-62
2022/05/31 15:22:26;;;;;;;6.28;3.47;;;;;;;;;;1928343;74;21041;-62
2022/05/31 15:24:58;;;;;;;8.48;3.37;;;;;;;;;;1928227;74;21030;-62
2022/05/31 15:27:29;;;;;;;6.75;3.33;;;;;;;;;;1928389;74;21026;-62
2022/05/31 15:29:57;;;;;;;6.72;3.67;;;;;;;;;;1928306;74;21476;-62
2022/05/31 15:32:26;;;;;;;5.83;3.37;;;;;;;;;;1928253;74;21021;-62
2022/05/31 15:34:54;;;;;;;9.33;4.90;;;;;;;;;;1928146;74;21018;-62
2022/05/31 15:37:24;;;;;;;8.18;3.70;;;;;;;;;;1928051;74;21034;-62
2022/05/31 15:39:56;;;;;;;6.37;3.72;;;;;;;;;;1928214;74;21079;-62
2022/05/31 15:42:25;;;;;;;18.90;3.90;;;;;;;;;;1928119;74;21484;-63
2022/05/31 15:44:53;;;;;;;11.35;5.92;;;;;;;;;;1928171;74;21001;-63